createdAt,value
2023-03-11T11:26:36.683Z,1002.43
2023-03-11T11:27:36.670Z,1002.43
2023-03-11T11:28:36.628Z,1002.43
2023-03-11T11:29:36.613Z,1002.44
2023-03-11T11:30:36.621Z,1002.41
2023-03-11T11:44:02.298Z,1002.28
2023-03-11T11:45:02.266Z,1002.29
2023-03-11T11:46:02.300Z,1002.28
2023-03-11T11:47:02.362Z,1002.29
2023-03-11T11:48:02.226Z,1002.25
2023-03-11T11:49:02.167Z,1002.29
2023-03-11T11:50:02.204Z,1002.30
2023-03-11T11:51:02.147Z,1002.32
2023-03-11T11:57:59.753Z,1002.46
2023-03-11T11:58:59.724Z,1002.44
2023-03-11T11:59:59.695Z,1002.47
2023-03-11T12:18:18.965Z,1002.50
2023-03-11T12:19:18.964Z,1002.48
2023-03-11T12:20:18.930Z,1002.47
2023-03-11T12:30:10.638Z,1002.39
2023-03-11T12:31:10.721Z,1002.37
2023-03-11T12:32:10.585Z,1002.44
2023-03-11T12:33:10.565Z,1002.46
2023-03-11T12:34:10.571Z,1002.46
2023-03-11T12:35:10.541Z,1002.51
2023-03-11T12:36:10.568Z,1002.55
2023-03-11T12:37:10.482Z,1002.58
2023-03-11T12:38:10.473Z,1002.52
2023-03-11T12:39:10.450Z,1002.49
2023-03-11T12:40:10.410Z,1002.46
2023-03-11T12:41:10.397Z,1002.48
2023-03-11T12:42:10.388Z,1002.54
2023-03-11T12:43:10.376Z,1002.53
2023-03-11T12:44:10.359Z,1002.52
2023-03-11T12:45:10.318Z,1002.55
2023-03-11T12:46:10.378Z,1002.57
2023-03-11T12:47:10.282Z,1002.57
2023-03-11T12:48:10.265Z,1002.56
2023-03-11T12:49:56.275Z,1002.53
2023-03-11T12:50:56.204Z,1002.59
2023-03-11T13:11:22.720Z,1002.40
2023-03-11T13:12:22.683Z,1002.39
2023-03-11T13:13:22.670Z,1002.37
2023-03-11T13:15:41.399Z,1002.37
2023-03-11T13:16:41.429Z,1002.35
2023-03-11T13:17:41.329Z,1002.39
2023-03-11T13:18:41.321Z,1002.41
2023-03-11T13:23:55.177Z,1002.52
2023-03-11T13:24:55.168Z,1002.54
2023-03-11T13:25:55.125Z,1002.50
2023-03-11T13:26:55.098Z,1002.49
2023-03-11T13:29:44.253Z,1002.48
2023-03-11T13:30:44.242Z,1002.44
2023-03-11T13:33:24.473Z,1002.40
2023-03-11T13:34:24.456Z,1002.39
2023-03-11T13:35:24.429Z,1002.33
2023-03-11T13:36:24.420Z,1002.40
2023-03-11T13:37:24.375Z,1002.36
2023-03-11T13:38:24.368Z,1002.40
2023-03-11T13:39:24.365Z,1002.39
2023-03-11T13:40:24.382Z,1002.42
2023-03-11T13:41:24.297Z,1002.42
2023-03-11T13:42:24.287Z,1002.40
2023-03-11T13:43:24.260Z,1002.39
2023-03-11T13:44:24.280Z,1002.47
2023-03-11T13:45:24.319Z,1002.45
2023-03-11T13:46:24.217Z,1002.49
2023-03-11T13:47:24.202Z,1002.51
2023-03-11T13:48:24.165Z,1002.48
2023-03-11T13:49:24.164Z,1002.49
2023-03-11T13:50:24.153Z,1002.51
2023-03-11T13:51:24.138Z,1002.52
2023-03-11T13:52:24.109Z,1002.52
2023-03-11T13:53:24.069Z,1002.56
2023-03-11T13:54:26.074Z,1002.61
2023-03-11T13:55:24.051Z,1002.53
2023-03-11T13:56:24.025Z,1002.48
2023-03-11T13:57:23.988Z,1002.48
2023-03-11T13:58:23.976Z,1002.44
2023-03-11T13:59:23.967Z,1002.46
2023-03-11T14:00:23.944Z,1002.44
2023-03-11T14:01:24.016Z,1002.45
2023-03-11T14:04:55.848Z,1002.52
2023-03-11T14:18:27.987Z,1002.46
2023-03-11T14:53:04.850Z,1002.64
2023-03-11T15:02:06.120Z,1002.60
